sensor_id;sensor_type;location;lat;lon;timestamp;P1;durP1;ratioP1;P2;durP2;ratioP2
3563;SDS011;1796;52.388;13.096;2024-01-06T00:04:07;63.13;;;25.40;;
3563;SDS011;1796;52.388;13.096;2024-01-06T00:24:00;62.13;;;24.10;;
3563;SDS011;1796;52.388;13.096;2024-01-06T00:27:20;56.17;;;25.37;;
3563;SDS011;1796;52.388;13.096;2024-01-06T00:30:46;63.93;;;25.13;;
3563;SDS011;1796;52.388;13.096;2024-01-06T01:08:14;70.50;;;25.30;;
3563;SDS011;1796;52.388;13.096;2024-01-06T01:20:30;70.67;;;27.23;;
3563;SDS011;1796;52.388;13.096;2024-01-06T01:22:15;63.63;;;26.10;;
3563;SDS011;1796;52.388;13.096;2024-01-06T01:30:17;56.63;;;24.27;;
3563;SDS011;1796;52.388;13.096;2024-01-06T01:32:27;62.73;;;25.57;;
3563;SDS011;1796;52.388;13.096;2024-01-06T01:35:53;58.60;;;26.37;;
3563;SDS011;1796;52.388;13.096;2024-01-06T02:27:11;61.60;;;26.03;;
3563;SDS011;1796;52.388;13.096;2024-01-06T02:29:43;56.93;;;24.63;;
3563;SDS011;1796;52.388;13.096;2024-01-06T02:35:27;60.10;;;25.30;;
3563;SDS011;1796;52.388;13.096;2024-01-06T02:38:04;61.83;;;25.47;;
3563;SDS011;1796;52.388;13.096;2024-01-06T02:40:34;56.27;;;23.97;;
3563;SDS011;1796;52.388;13.096;2024-01-06T02:43:16;58.90;;;25.10;;
3563;SDS011;1796;52.388;13.096;2024-01-06T02:45:48;64.17;;;25.07;;
3563;SDS011;1796;52.388;13.096;2024-01-06T02:48:36;64.47;;;24.43;;
3563;SDS011;1796;52.388;13.096;2024-01-06T02:51:46;60.97;;;23.90;;
3563;SDS011;1796;52.388;13.096;2024-01-06T02:54:28;57.50;;;21.83;;
3563;SDS011;1796;52.388;13.096;2024-01-06T02:57:22;68.03;;;23.37;;
3563;SDS011;1796;52.388;13.096;2024-01-06T03:15:00;47.90;;;23.20;;
3563;SDS011;1796;52.388;13.096;2024-01-06T03:18:20;48.03;;;20.10;;
3563;SDS011;1796;52.388;13.096;2024-01-06T03:21:00;61.33;;;23.87;;
3563;SDS011;1796;52.388;13.096;2024-01-06T03:34:17;50.07;;;20.33;;
3563;SDS011;1796;52.388;13.096;2024-01-06T03:37:07;68.00;;;21.47;;
3563;SDS011;1796;52.388;13.096;2024-01-06T03:39:42;49.60;;;21.70;;
3563;SDS011;1796;52.388;13.096;2024-01-06T03:42:29;56.60;;;22.03;;
3563;SDS011;1796;52.388;13.096;2024-01-06T03:45:52;47.83;;;19.87;;
3563;SDS011;1796;52.388;13.096;2024-01-06T03:49:11;58.97;;;22.17;;
3563;SDS011;1796;52.388;13.096;2024-01-06T03:54:40;44.27;;;19.30;;
3563;SDS011;1796;52.388;13.096;2024-01-06T03:55:33;50.17;;;19.83;;
3563;SDS011;1796;52.388;13.096;2024-01-06T03:59:07;44.30;;;18.60;;
3563;SDS011;1796;52.388;13.096;2024-01-06T04:02:43;42.20;;;18.90;;
3563;SDS011;1796;52.388;13.096;2024-01-06T04:05:25;54.57;;;20.13;;
3563;SDS011;1796;52.388;13.096;2024-01-06T04:08:03;46.87;;;20.03;;
3563;SDS011;1796;52.388;13.096;2024-01-06T04:10:45;52.33;;;20.90;;
3563;SDS011;1796;52.388;13.096;2024-01-06T04:13:45;56.60;;;19.97;;
3563;SDS011;1796;52.388;13.096;2024-01-06T04:16:31;50.57;;;21.47;;
3563;SDS011;1796;52.388;13.096;2024-01-06T04:19:12;56.90;;;20.63;;
3563;SDS011;1796;52.388;13.096;2024-01-06T04:21:56;56.30;;;20.83;;
3563;SDS011;1796;52.388;13.096;2024-01-06T04:24:41;55.83;;;19.77;;
3563;SDS011;1796;52.388;13.096;2024-01-06T04:30:34;55.03;;;19.97;;
3563;SDS011;1796;52.388;13.096;2024-01-06T04:33:16;54.60;;;21.30;;
3563;SDS011;1796;52.388;13.096;2024-01-06T04:35:48;46.80;;;20.10;;
3563;SDS011;1796;52.388;13.096;2024-01-06T04:38:20;50.33;;;19.87;;
3563;SDS011;1796;52.388;13.096;2024-01-06T04:41:14;49.90;;;20.30;;
3563;SDS011;1796;52.388;13.096;2024-01-06T04:58:24;51.50;;;20.50;;
3563;SDS011;1796;52.388;13.096;2024-01-06T05:01:34;49.07;;;21.00;;
3563;SDS011;1796;52.388;13.096;2024-01-06T05:04:42;56.00;;;21.13;;
3563;SDS011;1796;52.388;13.096;2024-01-06T05:11:28;58.87;;;20.80;;
3563;SDS011;1796;52.388;13.096;2024-01-06T05:14:06;48.73;;;21.57;;
3563;SDS011;1796;52.388;13.096;2024-01-06T05:17:04;67.40;;;22.43;;
3563;SDS011;1796;52.388;13.096;2024-01-06T05:19:34;55.67;;;21.57;;
3563;SDS011;1796;52.388;13.096;2024-01-06T05:22:06;63.87;;;22.60;;
3563;SDS011;1796;52.388;13.096;2024-01-06T05:24:56;62.60;;;22.83;;
3563;SDS011;1796;52.388;13.096;2024-01-06T05:27:27;70.57;;;24.30;;
3563;SDS011;1796;52.388;13.096;2024-01-06T05:30:03;65.03;;;23.77;;
3563;SDS011;1796;52.388;13.096;2024-01-06T05:32:49;59.33;;;24.00;;
3563;SDS011;1796;52.388;13.096;2024-01-06T05:35:19;65.70;;;23.87;;
3563;SDS011;1796;52.388;13.096;2024-01-06T05:37:49;70.37;;;24.13;;
3563;SDS011;1796;52.388;13.096;2024-01-06T05:40:20;69.73;;;22.73;;
3563;SDS011;1796;52.388;13.096;2024-01-06T05:42:47;66.67;;;22.23;;
3563;SDS011;1796;52.388;13.096;2024-01-06T05:45:17;76.60;;;23.33;;
3563;SDS011;1796;52.388;13.096;2024-01-06T05:47:45;58.93;;;22.77;;
3563;SDS011;1796;52.388;13.096;2024-01-06T05:50:14;76.80;;;23.57;;
3563;SDS011;1796;52.388;13.096;2024-01-06T05:52:42;78.50;;;23.57;;
3563;SDS011;1796;52.388;13.096;2024-01-06T05:55:10;64.23;;;25.07;;
3563;SDS011;1796;52.388;13.096;2024-01-06T05:57:37;59.30;;;22.93;;
3563;SDS011;1796;52.388;13.096;2024-01-06T06:00:07;80.37;;;25.60;;
3563;SDS011;1796;52.388;13.096;2024-01-06T06:02:40;61.50;;;22.87;;
3563;SDS011;1796;52.388;13.096;2024-01-06T06:05:08;59.90;;;23.27;;
3563;SDS011;1796;52.388;13.096;2024-01-06T06:07:35;65.07;;;24.33;;
3563;SDS011;1796;52.388;13.096;2024-01-06T06:10:07;59.33;;;24.67;;
3563;SDS011;1796;52.388;13.096;2024-01-06T06:12:35;53.37;;;21.50;;
3563;SDS011;1796;52.388;13.096;2024-01-06T06:15:03;59.30;;;21.90;;
3563;SDS011;1796;52.388;13.096;2024-01-06T06:17:31;65.00;;;25.03;;
3563;SDS011;1796;52.388;13.096;2024-01-06T06:20:00;65.57;;;22.90;;
3563;SDS011;1796;52.388;13.096;2024-01-06T06:22:28;65.90;;;25.43;;
3563;SDS011;1796;52.388;13.096;2024-01-06T06:24:56;66.37;;;24.10;;
3563;SDS011;1796;52.388;13.096;2024-01-06T06:27:23;62.77;;;22.73;;
3563;SDS011;1796;52.388;13.096;2024-01-06T06:29:54;51.40;;;23.90;;
3563;SDS011;1796;52.388;13.096;2024-01-06T06:32:22;66.13;;;24.17;;
3563;SDS011;1796;52.388;13.096;2024-01-06T06:34:50;62.50;;;24.40;;
3563;SDS011;1796;52.388;13.096;2024-01-06T06:37:19;72.60;;;24.93;;
3563;SDS011;1796;52.388;13.096;2024-01-06T06:39:52;64.77;;;25.10;;
3563;SDS011;1796;52.388;13.096;2024-01-06T06:42:25;70.10;;;24.93;;
3563;SDS011;1796;52.388;13.096;2024-01-06T06:45:00;63.63;;;24.87;;
3563;SDS011;1796;52.388;13.096;2024-01-06T06:47:30;68.50;;;24.90;;
3563;SDS011;1796;52.388;13.096;2024-01-06T06:50:08;61.73;;;25.90;;
3563;SDS011;1796;52.388;13.096;2024-01-06T06:52:39;65.83;;;25.37;;
3563;SDS011;1796;52.388;13.096;2024-01-06T06:55:17;62.63;;;25.57;;
3563;SDS011;1796;52.388;13.096;2024-01-06T06:57:45;62.00;;;25.80;;
3563;SDS011;1796;52.388;13.096;2024-01-06T07:00:12;54.97;;;23.70;;
3563;SDS011;1796;52.388;13.096;2024-01-06T07:02:41;56.27;;;24.80;;
3563;SDS011;1796;52.388;13.096;2024-01-06T07:05:08;62.43;;;23.70;;
3563;SDS011;1796;52.388;13.096;2024-01-06T07:07:39;68.70;;;24.47;;
3563;SDS011;1796;52.388;13.096;2024-01-06T07:10:08;65.30;;;26.10;;
3563;SDS011;1796;52.388;13.096;2024-01-06T07:12:37;76.27;;;26.83;;
3563;SDS011;1796;52.388;13.096;2024-01-06T07:15:04;69.13;;;24.80;;
3563;SDS011;1796;52.388;13.096;2024-01-06T07:17:34;73.87;;;27.93;;
3563;SDS011;1796;52.388;13.096;2024-01-06T07:20:04;68.67;;;25.50;;
3563;SDS011;1796;52.388;13.096;2024-01-06T07:22:33;83.33;;;26.60;;
3563;SDS011;1796;52.388;13.096;2024-01-06T07:25:02;67.40;;;25.83;;
3563;SDS011;1796;52.388;13.096;2024-01-06T07:27:30;75.37;;;26.80;;
3563;SDS011;1796;52.388;13.096;2024-01-06T07:29:57;70.70;;;25.93;;
3563;SDS011;1796;52.388;13.096;2024-01-06T07:32:24;70.17;;;26.17;;
3563;SDS011;1796;52.388;13.096;2024-01-06T07:34:51;74.80;;;25.03;;
3563;SDS011;1796;52.388;13.096;2024-01-06T07:37:21;78.30;;;26.30;;
3563;SDS011;1796;52.388;13.096;2024-01-06T07:39:49;69.87;;;27.17;;
3563;SDS011;1796;52.388;13.096;2024-01-06T07:42:18;73.27;;;25.87;;
3563;SDS011;1796;52.388;13.096;2024-01-06T07:44:44;64.73;;;25.17;;
3563;SDS011;1796;52.388;13.096;2024-01-06T07:47:11;71.30;;;24.70;;
3563;SDS011;1796;52.388;13.096;2024-01-06T07:49:39;64.83;;;25.03;;
3563;SDS011;1796;52.388;13.096;2024-01-06T07:52:06;85.17;;;28.83;;
3563;SDS011;1796;52.388;13.096;2024-01-06T07:54:33;70.37;;;26.00;;
3563;SDS011;1796;52.388;13.096;2024-01-06T07:57:00;75.97;;;26.20;;
3563;SDS011;1796;52.388;13.096;2024-01-06T07:59:29;86.10;;;27.57;;
3563;SDS011;1796;52.388;13.096;2024-01-06T08:01:57;60.30;;;24.17;;
3563;SDS011;1796;52.388;13.096;2024-01-06T08:04:27;69.83;;;24.87;;
3563;SDS011;1796;52.388;13.096;2024-01-06T08:07:46;56.27;;;24.90;;
3563;SDS011;1796;52.388;13.096;2024-01-06T08:18:46;61.57;;;23.73;;
3563;SDS011;1796;52.388;13.096;2024-01-06T08:21:52;61.53;;;23.63;;
3563;SDS011;1796;52.388;13.096;2024-01-06T08:24:50;60.07;;;23.90;;
3563;SDS011;1796;52.388;13.096;2024-01-06T08:34:30;82.33;;;23.80;;
3563;SDS011;1796;52.388;13.096;2024-01-06T08:37:27;66.93;;;24.50;;
3563;SDS011;1796;52.388;13.096;2024-01-06T08:39:56;70.27;;;22.07;;
3563;SDS011;1796;52.388;13.096;2024-01-06T08:42:23;68.07;;;24.53;;
3563;SDS011;1796;52.388;13.096;2024-01-06T08:44:51;68.13;;;23.30;;
3563;SDS011;1796;52.388;13.096;2024-01-06T08:47:18;70.67;;;23.77;;
3563;SDS011;1796;52.388;13.096;2024-01-06T08:49:46;70.47;;;25.60;;
3563;SDS011;1796;52.388;13.096;2024-01-06T08:52:14;56.77;;;22.20;;
3563;SDS011;1796;52.388;13.096;2024-01-06T08:54:42;71.20;;;24.80;;
3563;SDS011;1796;52.388;13.096;2024-01-06T08:57:09;74.20;;;24.93;;
3563;SDS011;1796;52.388;13.096;2024-01-06T08:59:36;68.07;;;23.73;;
3563;SDS011;1796;52.388;13.096;2024-01-06T09:02:05;84.83;;;23.80;;
3563;SDS011;1796;52.388;13.096;2024-01-06T09:04:32;65.40;;;23.03;;
3563;SDS011;1796;52.388;13.096;2024-01-06T09:07:01;55.60;;;21.70;;
3563;SDS011;1796;52.388;13.096;2024-01-06T09:09:28;57.83;;;22.00;;
3563;SDS011;1796;52.388;13.096;2024-01-06T09:11:55;72.97;;;24.00;;
3563;SDS011;1796;52.388;13.096;2024-01-06T09:14:22;61.10;;;23.07;;
3563;SDS011;1796;52.388;13.096;2024-01-06T09:16:49;62.33;;;22.83;;
3563;SDS011;1796;52.388;13.096;2024-01-06T09:19:16;65.83;;;22.30;;
3563;SDS011;1796;52.388;13.096;2024-01-06T09:21:43;70.50;;;23.77;;
3563;SDS011;1796;52.388;13.096;2024-01-06T09:24:12;67.20;;;23.63;;
3563;SDS011;1796;52.388;13.096;2024-01-06T09:26:39;73.97;;;23.23;;
3563;SDS011;1796;52.388;13.096;2024-01-06T09:29:07;64.63;;;24.20;;
3563;SDS011;1796;52.388;13.096;2024-01-06T09:31:34;65.23;;;24.53;;
3563;SDS011;1796;52.388;13.096;2024-01-06T09:34:04;79.27;;;24.60;;
3563;SDS011;1796;52.388;13.096;2024-01-06T09:36:35;65.70;;;22.37;;
3563;SDS011;1796;52.388;13.096;2024-01-06T09:39:04;76.27;;;24.67;;
3563;SDS011;1796;52.388;13.096;2024-01-06T09:41:34;66.27;;;25.43;;
3563;SDS011;1796;52.388;13.096;2024-01-06T09:44:01;69.23;;;24.40;;
3563;SDS011;1796;52.388;13.096;2024-01-06T09:46:28;76.20;;;24.70;;
3563;SDS011;1796;52.388;13.096;2024-01-06T09:48:56;65.97;;;22.70;;
3563;SDS011;1796;52.388;13.096;2024-01-06T09:51:23;67.70;;;23.50;;
3563;SDS011;1796;52.388;13.096;2024-01-06T09:53:52;69.20;;;25.63;;
3563;SDS011;1796;52.388;13.096;2024-01-06T09:56:23;80.07;;;25.73;;
3563;SDS011;1796;52.388;13.096;2024-01-06T09:58:52;70.93;;;25.77;;
3563;SDS011;1796;52.388;13.096;2024-01-06T10:01:22;89.43;;;27.87;;
3563;SDS011;1796;52.388;13.096;2024-01-06T10:03:49;68.70;;;22.93;;
3563;SDS011;1796;52.388;13.096;2024-01-06T10:06:16;75.07;;;26.93;;
3563;SDS011;1796;52.388;13.096;2024-01-06T10:08:48;59.97;;;22.60;;
3563;SDS011;1796;52.388;13.096;2024-01-06T10:11:15;67.00;;;23.80;;
3563;SDS011;1796;52.388;13.096;2024-01-06T10:13:42;55.83;;;21.93;;
3563;SDS011;1796;52.388;13.096;2024-01-06T10:16:11;68.50;;;24.67;;
3563;SDS011;1796;52.388;13.096;2024-01-06T10:18:38;75.63;;;24.80;;
3563;SDS011;1796;52.388;13.096;2024-01-06T10:21:05;63.17;;;24.07;;
3563;SDS011;1796;52.388;13.096;2024-01-06T10:23:32;79.70;;;24.87;;
3563;SDS011;1796;52.388;13.096;2024-01-06T10:25:59;66.37;;;25.00;;
3563;SDS011;1796;52.388;13.096;2024-01-06T10:28:26;84.80;;;25.33;;
3563;SDS011;1796;52.388;13.096;2024-01-06T10:30:54;70.33;;;24.90;;
3563;SDS011;1796;52.388;13.096;2024-01-06T10:33:23;84.33;;;22.87;;
3563;SDS011;1796;52.388;13.096;2024-01-06T10:35:52;56.23;;;22.77;;
3563;SDS011;1796;52.388;13.096;2024-01-06T10:38:20;68.57;;;24.60;;
3563;SDS011;1796;52.388;13.096;2024-01-06T10:40:57;68.77;;;24.13;;
3563;SDS011;1796;52.388;13.096;2024-01-06T10:43:25;69.37;;;25.37;;
3563;SDS011;1796;52.388;13.096;2024-01-06T10:45:54;70.47;;;25.00;;
3563;SDS011;1796;52.388;13.096;2024-01-06T10:48:25;66.60;;;25.03;;
3563;SDS011;1796;52.388;13.096;2024-01-06T10:50:53;63.33;;;24.50;;
3563;SDS011;1796;52.388;13.096;2024-01-06T10:53:21;57.60;;;23.77;;
3563;SDS011;1796;52.388;13.096;2024-01-06T10:55:50;61.67;;;23.20;;
3563;SDS011;1796;52.388;13.096;2024-01-06T10:58:18;71.23;;;25.87;;
3563;SDS011;1796;52.388;13.096;2024-01-06T11:00:46;57.87;;;23.37;;
3563;SDS011;1796;52.388;13.096;2024-01-06T11:03:13;70.20;;;24.20;;
3563;SDS011;1796;52.388;13.096;2024-01-06T11:05:42;65.47;;;24.77;;
3563;SDS011;1796;52.388;13.096;2024-01-06T11:08:09;56.40;;;22.97;;
3563;SDS011;1796;52.388;13.096;2024-01-06T11:10:37;65.73;;;25.53;;
3563;SDS011;1796;52.388;13.096;2024-01-06T11:13:07;59.50;;;24.30;;
3563;SDS011;1796;52.388;13.096;2024-01-06T11:15:39;58.93;;;22.90;;
3563;SDS011;1796;52.388;13.096;2024-01-06T11:18:11;61.43;;;24.40;;
3563;SDS011;1796;52.388;13.096;2024-01-06T11:21:18;56.83;;;23.13;;
3563;SDS011;1796;52.388;13.096;2024-01-06T11:26:42;59.33;;;24.50;;
3563;SDS011;1796;52.388;13.096;2024-01-06T11:29:10;57.57;;;23.70;;
3563;SDS011;1796;52.388;13.096;2024-01-06T11:31:37;53.60;;;23.30;;
3563;SDS011;1796;52.388;13.096;2024-01-06T11:34:12;55.70;;;23.90;;
3563;SDS011;1796;52.388;13.096;2024-01-06T11:36:42;54.20;;;22.33;;
3563;SDS011;1796;52.388;13.096;2024-01-06T11:39:25;52.87;;;22.27;;
3563;SDS011;1796;52.388;13.096;2024-01-06T11:42:00;49.53;;;19.60;;
3563;SDS011;1796;52.388;13.096;2024-01-06T11:44:28;57.13;;;22.93;;
3563;SDS011;1796;52.388;13.096;2024-01-06T11:46:55;53.23;;;23.03;;
3563;SDS011;1796;52.388;13.096;2024-01-06T11:49:23;42.53;;;20.80;;
3563;SDS011;1796;52.388;13.096;2024-01-06T11:51:55;58.47;;;24.87;;
3563;SDS011;1796;52.388;13.096;2024-01-06T11:54:22;54.97;;;21.77;;
3563;SDS011;1796;52.388;13.096;2024-01-06T11:56:50;47.10;;;22.77;;
3563;SDS011;1796;52.388;13.096;2024-01-06T11:59:18;52.27;;;22.47;;
3563;SDS011;1796;52.388;13.096;2024-01-06T12:01:45;47.30;;;22.37;;
3563;SDS011;1796;52.388;13.096;2024-01-06T12:04:13;44.30;;;22.27;;
3563;SDS011;1796;52.388;13.096;2024-01-06T12:06:41;49.33;;;20.40;;
3563;SDS011;1796;52.388;13.096;2024-01-06T12:09:11;49.70;;;22.20;;
3563;SDS011;1796;52.388;13.096;2024-01-06T12:11:40;46.13;;;22.43;;
3563;SDS011;1796;52.388;13.096;2024-01-06T12:14:10;52.80;;;22.97;;
3563;SDS011;1796;52.388;13.096;2024-01-06T12:16:37;54.17;;;23.37;;
3563;SDS011;1796;52.388;13.096;2024-01-06T12:19:04;44.90;;;21.60;;
3563;SDS011;1796;52.388;13.096;2024-01-06T12:21:31;40.87;;;20.90;;
3563;SDS011;1796;52.388;13.096;2024-01-06T12:24:19;39.97;;;20.90;;
3563;SDS011;1796;52.388;13.096;2024-01-06T12:26:47;51.20;;;21.87;;
3563;SDS011;1796;52.388;13.096;2024-01-06T12:29:16;40.10;;;21.10;;
3563;SDS011;1796;52.388;13.096;2024-01-06T12:31:43;40.00;;;20.70;;
3563;SDS011;1796;52.388;13.096;2024-01-06T12:34:10;45.50;;;21.43;;
3563;SDS011;1796;52.388;13.096;2024-01-06T12:36:37;49.77;;;22.40;;
3563;SDS011;1796;52.388;13.096;2024-01-06T12:39:06;48.87;;;21.27;;
3563;SDS011;1796;52.388;13.096;2024-01-06T12:41:39;40.47;;;22.00;;
3563;SDS011;1796;52.388;13.096;2024-01-06T12:44:06;45.83;;;21.93;;
3563;SDS011;1796;52.388;13.096;2024-01-06T12:46:34;41.93;;;20.40;;
3563;SDS011;1796;52.388;13.096;2024-01-06T12:49:01;40.20;;;21.03;;
3563;SDS011;1796;52.388;13.096;2024-01-06T12:51:28;39.70;;;21.57;;
3563;SDS011;1796;52.388;13.096;2024-01-06T12:53:55;49.97;;;21.80;;
3563;SDS011;1796;52.388;13.096;2024-01-06T12:56:22;41.63;;;21.03;;
3563;SDS011;1796;52.388;13.096;2024-01-06T12:58:50;45.30;;;21.10;;
3563;SDS011;1796;52.388;13.096;2024-01-06T13:01:18;42.50;;;20.03;;
3563;SDS011;1796;52.388;13.096;2024-01-06T13:03:45;43.07;;;20.07;;
3563;SDS011;1796;52.388;13.096;2024-01-06T13:06:12;41.67;;;20.93;;
3563;SDS011;1796;52.388;13.096;2024-01-06T13:08:39;41.20;;;21.30;;
3563;SDS011;1796;52.388;13.096;2024-01-06T13:11:06;38.43;;;20.27;;
3563;SDS011;1796;52.388;13.096;2024-01-06T13:13:33;44.10;;;20.70;;
3563;SDS011;1796;52.388;13.096;2024-01-06T13:16:04;40.03;;;18.33;;
3563;SDS011;1796;52.388;13.096;2024-01-06T13:18:31;40.73;;;20.60;;
3563;SDS011;1796;52.388;13.096;2024-01-06T13:20:58;51.90;;;23.13;;
3563;SDS011;1796;52.388;13.096;2024-01-06T13:23:25;39.00;;;21.43;;
3563;SDS011;1796;52.388;13.096;2024-01-06T13:25:52;42.50;;;20.40;;
3563;SDS011;1796;52.388;13.096;2024-01-06T13:28:19;43.87;;;21.00;;
3563;SDS011;1796;52.388;13.096;2024-01-06T13:30:49;46.50;;;20.90;;
3563;SDS011;1796;52.388;13.096;2024-01-06T13:33:17;41.20;;;19.97;;
3563;SDS011;1796;52.388;13.096;2024-01-06T13:35:44;40.03;;;19.27;;
3563;SDS011;1796;52.388;13.096;2024-01-06T13:38:10;39.63;;;19.23;;
3563;SDS011;1796;52.388;13.096;2024-01-06T13:40:37;33.17;;;18.00;;
3563;SDS011;1796;52.388;13.096;2024-01-06T13:43:04;38.93;;;18.90;;
3563;SDS011;1796;52.388;13.096;2024-01-06T13:45:34;40.00;;;19.03;;
3563;SDS011;1796;52.388;13.096;2024-01-06T13:48:01;39.37;;;18.93;;
3563;SDS011;1796;52.388;13.096;2024-01-06T13:50:29;41.23;;;19.83;;
3563;SDS011;1796;52.388;13.096;2024-01-06T13:52:57;40.47;;;19.27;;
3563;SDS011;1796;52.388;13.096;2024-01-06T13:55:25;40.10;;;19.93;;
3563;SDS011;1796;52.388;13.096;2024-01-06T13:57:52;43.70;;;20.07;;
3563;SDS011;1796;52.388;13.096;2024-01-06T14:00:19;37.03;;;18.60;;
3563;SDS011;1796;52.388;13.096;2024-01-06T14:02:47;34.80;;;17.07;;
3563;SDS011;1796;52.388;13.096;2024-01-06T14:05:14;37.13;;;19.40;;
3563;SDS011;1796;52.388;13.096;2024-01-06T14:07:43;32.37;;;18.23;;
3563;SDS011;1796;52.388;13.096;2024-01-06T14:10:12;38.20;;;17.83;;
3563;SDS011;1796;52.388;13.096;2024-01-06T14:12:39;36.00;;;19.00;;
3563;SDS011;1796;52.388;13.096;2024-01-06T14:15:07;41.93;;;18.90;;
3563;SDS011;1796;52.388;13.096;2024-01-06T14:17:34;38.33;;;18.57;;
3563;SDS011;1796;52.388;13.096;2024-01-06T14:20:01;42.90;;;19.87;;
3563;SDS011;1796;52.388;13.096;2024-01-06T14:22:29;37.20;;;19.00;;
3563;SDS011;1796;52.388;13.096;2024-01-06T14:24:57;36.80;;;18.40;;
3563;SDS011;1796;52.388;13.096;2024-01-06T14:27:25;38.90;;;17.80;;
3563;SDS011;1796;52.388;13.096;2024-01-06T14:29:53;42.73;;;18.33;;
3563;SDS011;1796;52.388;13.096;2024-01-06T14:32:21;34.83;;;18.27;;
3563;SDS011;1796;52.388;13.096;2024-01-06T14:34:49;33.73;;;17.17;;
3563;SDS011;1796;52.388;13.096;2024-01-06T14:37:16;34.83;;;18.60;;
3563;SDS011;1796;52.388;13.096;2024-01-06T14:39:43;34.37;;;17.63;;
3563;SDS011;1796;52.388;13.096;2024-01-06T14:42:11;36.73;;;17.67;;
3563;SDS011;1796;52.388;13.096;2024-01-06T14:44:38;33.47;;;17.10;;
3563;SDS011;1796;52.388;13.096;2024-01-06T14:47:05;34.10;;;16.07;;
3563;SDS011;1796;52.388;13.096;2024-01-06T14:49:33;32.40;;;15.90;;
3563;SDS011;1796;52.388;13.096;2024-01-06T14:52:00;35.70;;;17.20;;
3563;SDS011;1796;52.388;13.096;2024-01-06T14:54:28;33.67;;;16.40;;
3563;SDS011;1796;52.388;13.096;2024-01-06T14:56:56;41.13;;;17.80;;
3563;SDS011;1796;52.388;13.096;2024-01-06T14:59:24;30.10;;;16.30;;
3563;SDS011;1796;52.388;13.096;2024-01-06T15:01:51;28.13;;;16.03;;
3563;SDS011;1796;52.388;13.096;2024-01-06T15:04:18;31.17;;;15.60;;
3563;SDS011;1796;52.388;13.096;2024-01-06T15:06:45;39.27;;;17.33;;
3563;SDS011;1796;52.388;13.096;2024-01-06T15:09:12;35.40;;;16.87;;
3563;SDS011;1796;52.388;13.096;2024-01-06T15:11:39;30.97;;;16.23;;
3563;SDS011;1796;52.388;13.096;2024-01-06T15:14:06;35.83;;;17.30;;
3563;SDS011;1796;52.388;13.096;2024-01-06T15:16:35;31.80;;;16.43;;
3563;SDS011;1796;52.388;13.096;2024-01-06T15:19:02;40.17;;;16.80;;
3563;SDS011;1796;52.388;13.096;2024-01-06T15:21:29;36.13;;;16.10;;
3563;SDS011;1796;52.388;13.096;2024-01-06T15:23:58;34.57;;;16.90;;
3563;SDS011;1796;52.388;13.096;2024-01-06T15:26:26;32.27;;;16.10;;
3563;SDS011;1796;52.388;13.096;2024-01-06T15:28:53;33.57;;;17.00;;
3563;SDS011;1796;52.388;13.096;2024-01-06T15:31:21;32.80;;;17.40;;
3563;SDS011;1796;52.388;13.096;2024-01-06T15:33:51;31.23;;;16.47;;
3563;SDS011;1796;52.388;13.096;2024-01-06T15:36:18;35.77;;;17.47;;
3563;SDS011;1796;52.388;13.096;2024-01-06T15:38:45;34.63;;;17.47;;
3563;SDS011;1796;52.388;13.096;2024-01-06T15:41:13;35.57;;;15.83;;
3563;SDS011;1796;52.388;13.096;2024-01-06T15:43:40;32.57;;;14.97;;
3563;SDS011;1796;52.388;13.096;2024-01-06T15:46:07;32.80;;;16.47;;
3563;SDS011;1796;52.388;13.096;2024-01-06T15:48:34;29.70;;;14.17;;
3563;SDS011;1796;52.388;13.096;2024-01-06T15:51:03;27.57;;;15.33;;
3563;SDS011;1796;52.388;13.096;2024-01-06T15:53:30;28.47;;;15.17;;
3563;SDS011;1796;52.388;13.096;2024-01-06T15:55:58;31.23;;;15.87;;
3563;SDS011;1796;52.388;13.096;2024-01-06T15:58:25;28.87;;;15.70;;
3563;SDS011;1796;52.388;13.096;2024-01-06T16:00:52;29.60;;;14.87;;
3563;SDS011;1796;52.388;13.096;2024-01-06T16:03:19;25.73;;;15.23;;
3563;SDS011;1796;52.388;13.096;2024-01-06T16:05:46;25.23;;;13.67;;
3563;SDS011;1796;52.388;13.096;2024-01-06T16:08:15;29.03;;;13.77;;
3563;SDS011;1796;52.388;13.096;2024-01-06T16:10:42;23.10;;;12.50;;
3563;SDS011;1796;52.388;13.096;2024-01-06T16:13:09;21.97;;;11.63;;
3563;SDS011;1796;52.388;13.096;2024-01-06T16:15:36;24.60;;;12.87;;
3563;SDS011;1796;52.388;13.096;2024-01-06T16:18:03;23.93;;;11.20;;
3563;SDS011;1796;52.388;13.096;2024-01-06T16:20:30;23.17;;;12.37;;
3563;SDS011;1796;52.388;13.096;2024-01-06T16:22:57;21.43;;;12.30;;
3563;SDS011;1796;52.388;13.096;2024-01-06T16:25:26;21.03;;;11.30;;
3563;SDS011;1796;52.388;13.096;2024-01-06T16:27:53;25.40;;;12.77;;
3563;SDS011;1796;52.388;13.096;2024-01-06T16:30:20;26.20;;;11.13;;
3563;SDS011;1796;52.388;13.096;2024-01-06T16:32:59;21.47;;;11.60;;
3563;SDS011;1796;52.388;13.096;2024-01-06T16:35:26;14.53;;;8.50;;
3563;SDS011;1796;52.388;13.096;2024-01-06T16:37:53;22.10;;;11.80;;
3563;SDS011;1796;52.388;13.096;2024-01-06T16:40:22;20.00;;;9.27;;
3563;SDS011;1796;52.388;13.096;2024-01-06T16:42:51;13.40;;;9.40;;
3563;SDS011;1796;52.388;13.096;2024-01-06T16:45:17;16.27;;;7.90;;
3563;SDS011;1796;52.388;13.096;2024-01-06T16:47:44;15.20;;;8.00;;
3563;SDS011;1796;52.388;13.096;2024-01-06T16:50:12;16.93;;;8.37;;
3563;SDS011;1796;52.388;13.096;2024-01-06T16:52:39;17.30;;;9.93;;
3563;SDS011;1796;52.388;13.096;2024-01-06T16:55:06;17.40;;;8.60;;
3563;SDS011;1796;52.388;13.096;2024-01-06T16:57:34;16.73;;;8.30;;
3563;SDS011;1796;52.388;13.096;2024-01-06T17:00:02;16.80;;;7.67;;
3563;SDS011;1796;52.388;13.096;2024-01-06T17:02:29;14.07;;;7.87;;
3563;SDS011;1796;52.388;13.096;2024-01-06T17:04:56;11.50;;;5.90;;
3563;SDS011;1796;52.388;13.096;2024-01-06T17:07:23;15.47;;;8.00;;
3563;SDS011;1796;52.388;13.096;2024-01-06T17:09:51;15.80;;;7.37;;
3563;SDS011;1796;52.388;13.096;2024-01-06T17:12:19;15.90;;;7.97;;
3563;SDS011;1796;52.388;13.096;2024-01-06T17:14:46;14.40;;;7.60;;
3563;SDS011;1796;52.388;13.096;2024-01-06T17:17:15;17.87;;;7.47;;
3563;SDS011;1796;52.388;13.096;2024-01-06T17:19:41;13.10;;;7.57;;
3563;SDS011;1796;52.388;13.096;2024-01-06T17:22:08;14.60;;;7.33;;
3563;SDS011;1796;52.388;13.096;2024-01-06T17:24:35;13.57;;;6.97;;
3563;SDS011;1796;52.388;13.096;2024-01-06T17:27:02;13.13;;;7.97;;
3563;SDS011;1796;52.388;13.096;2024-01-06T17:29:29;21.87;;;8.60;;
3563;SDS011;1796;52.388;13.096;2024-01-06T17:31:59;16.73;;;7.00;;
3563;SDS011;1796;52.388;13.096;2024-01-06T17:34:27;11.50;;;6.93;;
3563;SDS011;1796;52.388;13.096;2024-01-06T17:36:54;13.60;;;7.20;;
3563;SDS011;1796;52.388;13.096;2024-01-06T17:39:21;13.80;;;7.80;;
3563;SDS011;1796;52.388;13.096;2024-01-06T17:41:47;12.17;;;7.77;;
3563;SDS011;1796;52.388;13.096;2024-01-06T17:44:14;19.43;;;8.80;;
3563;SDS011;1796;52.388;13.096;2024-01-06T17:46:41;18.53;;;8.33;;
3563;SDS011;1796;52.388;13.096;2024-01-06T17:49:08;14.63;;;7.07;;
3563;SDS011;1796;52.388;13.096;2024-01-06T17:51:36;15.10;;;7.30;;
3563;SDS011;1796;52.388;13.096;2024-01-06T17:54:03;12.83;;;6.67;;
3563;SDS011;1796;52.388;13.096;2024-01-06T17:56:30;13.40;;;7.00;;
3563;SDS011;1796;52.388;13.096;2024-01-06T17:58:57;11.47;;;6.70;;
3563;SDS011;1796;52.388;13.096;2024-01-06T18:01:26;11.50;;;6.70;;
3563;SDS011;1796;52.388;13.096;2024-01-06T18:03:54;15.33;;;7.67;;
3563;SDS011;1796;52.388;13.096;2024-01-06T18:06:20;15.23;;;7.20;;
3563;SDS011;1796;52.388;13.096;2024-01-06T18:08:50;13.50;;;7.13;;
3563;SDS011;1796;52.388;13.096;2024-01-06T18:11:17;11.47;;;7.40;;